Time;durP1;ratioP1;P1;durP2;ratioP2;P2;SDS_P1;SDS_P2;PMS_P1;PMS_P2;Temp;Humidity;BMP_temperature;BMP_pressure;BME280_temperature;BME280_humidity;BME280_pressure;Samples;Min_cycle;Max_cycle;Signal;HPM_P1;HPM_P2
2022/09/28 00:02:05;;;;;;;;;;;16.20;93.00;;;;;;5033447;28;20366;-71
2022/09/28 00:04:32;;;;;;;;;;;16.20;93.00;;;;;;5033320;28;19905;-73
2022/09/28 00:06:58;;;;;;;;;;;16.20;93.10;;;;;;5031961;28;20346;-69
2022/09/28 00:09:23;;;;;;;;;;;16.20;93.20;;;;;;5033379;28;19905;-72
2022/09/28 00:11:49;;;;;;;;;;;16.20;93.20;;;;;;5033381;28;19912;-68
2022/09/28 00:14:15;;;;;;;;;;;16.20;93.30;;;;;;5032994;28;19913;-71
2022/09/28 00:16:42;;;;;;;;;;;16.10;93.40;;;;;;5032875;28;19909;-70
2022/09/28 00:19:08;;;;;;;;;;;16.10;93.30;;;;;;5033238;28;19963;-72
2022/09/28 00:21:35;;;;;;;;;;;16.10;93.30;;;;;;5034337;28;19905;-69
2022/09/28 00:24:17;;;;;;;;;;;16.10;93.30;;;;;;5036125;28;19905;-69
2022/09/28 00:26:43;;;;;;;;;;;16.10;93.40;;;;;;5036588;28;19915;-69
2022/09/28 00:29:19;;;;;;;;;;;16.10;93.30;;;;;;5037367;28;20405;-68
2022/09/28 00:31:45;;;;;;;;;;;16.10;93.40;;;;;;5037344;28;19905;-71
2022/09/28 00:34:11;;;;;;;;;;;16.10;93.40;;;;;;5037336;28;19912;-71
2022/09/28 00:36:36;;;;;;;;;;;16.10;93.40;;;;;;5036601;28;19912;-69
2022/09/28 00:39:03;;;;;;;;;;;16.10;93.40;;;;;;5037126;28;19913;-71
2022/09/28 00:41:29;;;;;;;;;;;16.10;93.40;;;;;;5037089;28;19953;-73
2022/09/28 00:44:13;;;;;;;;;;;16.10;93.40;;;;;;5036954;28;19976;-69
2022/09/28 00:46:39;;;;;;;;;;;16.10;93.40;;;;;;5036761;28;19917;-71
2022/09/28 00:49:08;;;;;;;;;;;16.10;93.40;;;;;;5036799;28;20050;-69
2022/09/28 00:51:34;;;;;;;;;;;16.10;93.40;;;;;;5036614;28;20285;-70
2022/09/28 00:54:00;;;;;;;;;;;16.00;93.30;;;;;;5036826;28;19905;-69
2022/09/28 00:56:28;;;;;;;;;;;16.10;93.30;;;;;;5036538;28;19905;-68
2022/09/28 00:58:55;;;;;;;;;;;16.10;93.30;;;;;;5036850;28;19911;-72
2022/09/28 01:01:21;;;;;;;;;;;16.10;93.30;;;;;;5036636;28;20432;-71
2022/09/28 01:03:47;;;;;;;;;;;16.10;93.30;;;;;;5036645;28;19905;-70
2022/09/28 01:06:20;;;;;;;;;;;16.00;93.40;;;;;;5036295;28;19963;-68
2022/09/28 01:08:49;;;;;;;;;;;16.00;93.40;;;;;;5036735;28;19905;-69
2022/09/28 01:11:15;;;;;;;;;;;16.00;93.40;;;;;;5036277;28;20037;-72
2022/09/28 01:13:41;;;;;;;;;;;16.00;93.40;;;;;;5036333;28;20358;-68
2022/09/28 01:16:25;;;;;;;;;;;16.10;93.50;;;;;;5020264;28;19968;-68
2022/09/28 01:19:00;;;;;;;;;;;16.00;93.50;;;;;;5022590;28;19906;-67
2022/09/28 01:21:25;;;;;;;;;;;16.00;93.60;;;;;;5014279;28;19917;-69
2022/09/28 01:24:08;;;;;;;;;;;16.00;93.60;;;;;;5015478;28;19909;-70
2022/09/28 01:26:47;;;;;;;;;;;16.00;93.60;;;;;;5014916;28;19905;-73
2022/09/28 01:29:15;;;;;;;;;;;16.00;93.60;;;;;;5016554;28;19924;-70
2022/09/28 01:31:44;;;;;;;;;;;16.00;93.40;;;;;;5016297;28;20339;-69
2022/09/28 01:34:12;;;;;;;;;;;16.00;93.30;;;;;;5014624;28;19912;-72
2022/09/28 01:36:45;;;;;;;;;;;16.00;93.40;;;;;;5016234;28;19992;-71
2022/09/28 01:39:15;;;;;;;;;;;15.90;93.40;;;;;;5016284;28;19913;-73
2022/09/28 01:41:42;;;;;;;;;;;15.90;93.40;;;;;;5016138;28;19906;-72
2022/09/28 01:44:10;;;;;;;;;;;16.00;93.40;;;;;;5016430;28;19905;-73
2022/09/28 01:46:40;;;;;;;;;;;16.00;93.30;;;;;;5015735;28;19923;-73
2022/09/28 01:49:18;;;;;;;;;;;16.00;93.40;;;;;;5016275;28;19992;-73
2022/09/28 01:51:50;;;;;;;;;;;16.00;93.50;;;;;;5016196;28;19939;-70
2022/09/28 01:54:18;;;;;;;;;;;15.90;93.40;;;;;;5015995;28;19959;-68
2022/09/28 01:56:49;;;;;;;;;;;16.00;93.40;;;;;;5015764;28;19910;-72
2022/09/28 01:59:19;;;;;;;;;;;16.00;93.50;;;;;;5015908;28;19913;-73
2022/09/28 02:01:50;;;;;;;;;;;16.00;93.50;;;;;;5016197;28;19913;-69
2022/09/28 02:04:22;;;;;;;;;;;15.90;93.30;;;;;;5015339;28;19934;-69
2022/09/28 02:06:51;;;;;;;;;;;15.90;93.30;;;;;;5015377;28;19905;-69
2022/09/28 02:09:21;;;;;;;;;;;16.00;93.40;;;;;;5015531;28;19905;-70
2022/09/28 02:11:49;;;;;;;;;;;15.90;93.40;;;;;;5018884;28;20369;-69
2022/09/28 02:14:16;;;;;;;;;;;15.90;93.40;;;;;;5034836;28;20023;-72
2022/09/28 02:16:46;;;;;;;;;;;15.80;93.40;;;;;;5033578;28;19909;-72
2022/09/28 02:19:12;;;;;;;;;;;15.90;93.40;;;;;;5034160;28;19909;-72
2022/09/28 02:21:41;;;;;;;;;;;15.80;93.30;;;;;;5035349;28;19916;-71
2022/09/28 02:24:12;;;;;;;;;;;15.80;93.40;;;;;;5034955;28;19905;-72
2022/09/28 02:26:40;;;;;;;;;;;15.80;93.30;;;;;;5035246;28;19905;-74
2022/09/28 02:29:06;;;;;;;;;;;15.80;93.10;;;;;;5034874;28;19905;-73
2022/09/28 02:31:32;;;;;;;;;;;15.80;93.20;;;;;;5034833;28;19927;-73
2022/09/28 02:33:57;;;;;;;;;;;15.80;93.20;;;;;;5035044;28;19905;-74
2022/09/28 02:36:26;;;;;;;;;;;15.80;93.20;;;;;;5034906;28;19909;-72
2022/09/28 02:38:53;;;;;;;;;;;15.80;93.20;;;;;;5034722;28;19912;-73
2022/09/28 02:41:37;;;;;;;;;;;15.80;93.20;;;;;;5034805;28;20020;-73
2022/09/28 02:44:14;;;;;;;;;;;15.80;93.30;;;;;;5034583;28;19909;-71
2022/09/28 02:46:48;;;;;;;;;;;15.80;93.30;;;;;;5034408;28;19923;-73
2022/09/28 02:49:20;;;;;;;;;;;15.70;93.40;;;;;;5034526;28;19913;-72
2022/09/28 02:52:05;;;;;;;;;;;15.70;93.50;;;;;;5034719;28;19905;-71
2022/09/28 02:54:49;;;;;;;;;;;15.70;93.40;;;;;;5034512;28;19919;-73
2022/09/28 02:57:17;;;;;;;;;;;15.80;93.50;;;;;;5034473;28;19905;-72
2022/09/28 02:59:49;;;;;;;;;;;15.70;93.50;;;;;;5034366;28;19920;-72
2022/09/28 03:02:30;;;;;;;;;;;15.70;93.50;;;;;;5032986;28;19905;-73
2022/09/28 03:05:07;;;;;;;;;;;15.80;93.50;;;;;;5034261;28;19920;-73
2022/09/28 03:07:40;;;;;;;;;;;15.70;93.40;;;;;;5034450;28;19932;-73
2022/09/28 03:10:05;;;;;;;;;;;15.70;93.50;;;;;;5034328;28;19905;-73
2022/09/28 03:12:32;;;;;;;;;;;15.70;93.60;;;;;;5034198;28;20251;-73
2022/09/28 03:15:16;;;;;;;;;;;15.70;93.60;;;;;;5033879;28;20285;-73
2022/09/28 03:17:42;;;;;;;;;;;15.70;93.60;;;;;;5034342;28;19909;-73
2022/09/28 03:20:08;;;;;;;;;;;15.70;93.60;;;;;;5034125;28;19913;-71
2022/09/28 03:22:34;;;;;;;;;;;15.70;93.50;;;;;;5034565;28;19912;-73
2022/09/28 03:24:59;;;;;;;;;;;15.70;93.60;;;;;;5034230;28;19905;-73
2022/09/28 03:27:25;;;;;;;;;;;15.60;93.50;;;;;;5033936;28;19958;-72
2022/09/28 03:29:50;;;;;;;;;;;15.70;93.50;;;;;;5033734;28;19919;-73
2022/09/28 03:32:15;;;;;;;;;;;15.70;93.50;;;;;;5033843;28;19905;-72
2022/09/28 03:34:41;;;;;;;;;;;15.70;93.50;;;;;;5033631;28;19905;-72
2022/09/28 03:37:06;;;;;;;;;;;15.60;93.40;;;;;;5034065;28;19906;-73
2022/09/28 03:39:32;;;;;;;;;;;15.60;93.50;;;;;;5033623;28;20515;-72
2022/09/28 03:41:59;;;;;;;;;;;15.60;93.30;;;;;;5033912;28;19911;-73
2022/09/28 03:44:24;;;;;;;;;;;15.60;93.30;;;;;;5033249;28;19959;-72
2022/09/28 03:46:49;;;;;;;;;;;15.70;93.20;;;;;;5033693;28;20007;-71
2022/09/28 03:49:15;;;;;;;;;;;15.60;93.10;;;;;;5033476;28;19912;-71
2022/09/28 03:51:40;;;;;;;;;;;15.60;93.00;;;;;;5033666;28;19916;-72
2022/09/28 03:54:06;;;;;;;;;;;15.60;93.00;;;;;;5033559;28;20359;-73
2022/09/28 03:56:31;;;;;;;;;;;15.60;92.90;;;;;;5032657;28;19909;-73
2022/09/28 03:58:57;;;;;;;;;;;15.60;92.90;;;;;;5033058;28;19905;-72
2022/09/28 04:01:22;;;;;;;;;;;15.60;92.70;;;;;;5032318;28;20284;-71
2022/09/28 04:03:51;;;;;;;;;;;15.60;92.70;;;;;;5033621;28;20243;-72
2022/09/28 04:06:17;;;;;;;;;;;15.60;92.70;;;;;;5032207;28;19905;-73
2022/09/28 04:08:42;;;;;;;;;;;15.60;92.80;;;;;;5033485;28;20430;-73
2022/09/28 04:11:08;;;;;;;;;;;15.50;92.70;;;;;;5033373;28;19966;-73
2022/09/28 04:13:33;;;;;;;;;;;15.50;92.80;;;;;;5032915;28;19920;-71
2022/09/28 04:16:00;;;;;;;;;;;15.50;92.80;;;;;;5033174;28;19909;-73
2022/09/28 04:18:25;;;;;;;;;;;15.50;92.80;;;;;;5033185;28;20369;-71
2022/09/28 04:20:58;;;;;;;;;;;15.40;92.70;;;;;;5033395;28;19963;-73
2022/09/28 04:23:23;;;;;;;;;;;15.40;92.60;;;;;;5033362;28;19909;-71
2022/09/28 04:25:52;;;;;;;;;;;15.40;92.60;;;;;;5033343;28;19905;-73
2022/09/28 04:31:02;;;;;;;;;;;15.50;92.50;;;;;;5033453;28;19912;-72
2022/09/28 04:33:28;;;;;;;;;;;15.40;92.50;;;;;;5033454;28;19905;-73
2022/09/28 04:35:53;;;;;;;;;;;15.40;92.50;;;;;;5033201;28;19916;-72
2022/09/28 04:38:19;;;;;;;;;;;15.40;92.50;;;;;;5033445;28;19912;-70
2022/09/28 04:40:47;;;;;;;;;;;15.40;92.50;;;;;;5032923;28;20003;-71
2022/09/28 04:43:12;;;;;;;;;;;15.40;92.40;;;;;;5031586;28;20307;-72
2022/09/28 04:45:38;;;;;;;;;;;15.30;92.40;;;;;;5019889;28;20444;-71
2022/09/28 04:48:05;;;;;;;;;;;15.30;92.40;;;;;;5028592;28;19913;-73
2022/09/28 04:50:30;;;;;;;;;;;15.30;92.40;;;;;;5023379;28;19912;-72
2022/09/28 04:52:55;;;;;;;;;;;15.20;92.40;;;;;;5015160;28;20282;-71
2022/09/28 04:55:21;;;;;;;;;;;15.20;92.50;;;;;;5021228;28;19913;-73
2022/09/28 04:57:48;;;;;;;;;;;15.20;91.90;;;;;;5012854;28;19921;-73
2022/09/28 05:00:13;;;;;;;;;;;15.40;91.20;;;;;;5012815;28;19997;-69
2022/09/28 05:02:39;;;;;;;;;;;15.30;92.00;;;;;;5023352;28;19913;-70
2022/09/28 05:05:04;;;;;;;;;;;15.30;91.90;;;;;;5021907;28;19936;-70
2022/09/28 05:07:30;;;;;;;;;;;15.30;91.80;;;;;;5012117;28;19940;-70
2022/09/28 05:09:55;;;;;;;;;;;15.30;91.80;;;;;;5015239;28;19909;-70
2022/09/28 05:12:21;;;;;;;;;;;15.30;91.90;;;;;;5016258;28;20359;-70
2022/09/28 05:14:46;;;;;;;;;;;15.20;91.80;;;;;;5015397;28;19963;-70
2022/09/28 05:17:12;;;;;;;;;;;15.20;91.80;;;;;;5015402;28;19916;-70
2022/09/28 05:19:37;;;;;;;;;;;15.30;91.80;;;;;;5016455;28;19917;-70
2022/09/28 05:22:03;;;;;;;;;;;15.20;91.80;;;;;;5015121;28;19909;-69
2022/09/28 05:24:29;;;;;;;;;;;15.20;91.80;;;;;;5017271;28;20000;-69
2022/09/28 05:26:55;;;;;;;;;;;15.10;91.90;;;;;;5017859;28;19936;-69
2022/09/28 05:29:20;;;;;;;;;;;15.10;91.90;;;;;;5020772;28;19932;-69
2022/09/28 05:31:46;;;;;;;;;;;15.10;92.00;;;;;;5015581;28;20397;-69
2022/09/28 05:34:11;;;;;;;;;;;15.10;91.90;;;;;;5025589;28;19909;-69
2022/09/28 05:36:38;;;;;;;;;;;15.00;91.80;;;;;;5018696;28;19917;-69
2022/09/28 05:39:04;;;;;;;;;;;15.00;91.90;;;;;;5020394;28;20362;-69
2022/09/28 05:41:29;;;;;;;;;;;15.00;91.90;;;;;;5025836;28;19956;-69
2022/09/28 05:43:56;;;;;;;;;;;15.00;92.00;;;;;;5013225;28;19909;-69
2022/09/28 05:46:22;;;;;;;;;;;15.00;92.00;;;;;;5033747;28;19925;-69
2022/09/28 05:48:48;;;;;;;;;;;14.90;92.00;;;;;;5023515;28;19909;-70
2022/09/28 05:51:14;;;;;;;;;;;14.90;92.10;;;;;;5019133;28;19916;-70
2022/09/28 05:53:39;;;;;;;;;;;14.90;92.20;;;;;;5017967;28;19917;-70
2022/09/28 05:56:05;;;;;;;;;;;14.80;92.20;;;;;;5030299;28;19909;-70
2022/09/28 05:58:30;;;;;;;;;;;14.70;92.30;;;;;;5026531;28;20374;-70
2022/09/28 06:00:56;;;;;;;;;;;14.80;92.30;;;;;;5042494;28;20392;-70
2022/09/28 06:03:22;;;;;;;;;;;14.80;93.10;;;;;;5025408;28;20435;-70
2022/09/28 06:05:48;;;;;;;;;;;14.90;93.50;;;;;;5037333;28;19909;-70
2022/09/28 06:08:13;;;;;;;;;;;14.90;93.60;;;;;;5026146;28;19921;-70
2022/09/28 06:10:39;;;;;;;;;;;14.80;94.20;;;;;;5025580;28;19999;-70
2022/09/28 06:13:05;;;;;;;;;;;14.70;94.50;;;;;;5025549;28;19917;-70
2022/09/28 06:15:32;;;;;;;;;;;14.90;93.20;;;;;;5020516;28;19941;-70
2022/09/28 06:18:05;;;;;;;;;;;15.10;92.50;;;;;;5033497;28;19909;-70
2022/09/28 06:20:32;;;;;;;;;;;15.10;92.20;;;;;;5016378;28;20067;-70
2022/09/28 06:22:57;;;;;;;;;;;15.00;92.30;;;;;;5013627;28;20007;-70
2022/09/28 06:25:26;;;;;;;;;;;15.00;92.30;;;;;;5015085;28;20449;-70
2022/09/28 06:27:52;;;;;;;;;;;15.00;92.40;;;;;;5014220;28;19912;-70
2022/09/28 06:30:17;;;;;;;;;;;15.00;92.50;;;;;;5014307;28;19909;-70
2022/09/28 06:32:43;;;;;;;;;;;15.00;92.80;;;;;;5015123;28;19916;-70
2022/09/28 06:35:08;;;;;;;;;;;15.00;92.50;;;;;;5015109;28;20004;-70
2022/09/28 06:37:34;;;;;;;;;;;15.00;92.60;;;;;;5014767;28;19905;-70
2022/09/28 06:40:00;;;;;;;;;;;15.00;92.70;;;;;;5015077;28;20355;-70
2022/09/28 06:42:25;;;;;;;;;;;15.00;92.90;;;;;;5014985;28;19905;-70
2022/09/28 06:44:51;;;;;;;;;;;15.00;93.00;;;;;;5015061;28;19909;-70
2022/09/28 06:47:16;;;;;;;;;;;14.90;93.10;;;;;;5014756;28;19917;-70
2022/09/28 06:49:42;;;;;;;;;;;15.00;93.30;;;;;;5014896;28;19905;-70
2022/09/28 06:52:07;;;;;;;;;;;14.90;93.40;;;;;;5014723;28;19968;-70
2022/09/28 06:54:33;;;;;;;;;;;14.90;93.70;;;;;;5013677;28;19909;-70
2022/09/28 06:56:58;;;;;;;;;;;14.90;93.80;;;;;;5014833;28;20321;-70
2022/09/28 06:59:23;;;;;;;;;;;14.90;94.10;;;;;;5014465;28;19948;-70
2022/09/28 07:01:49;;;;;;;;;;;14.90;94.30;;;;;;5014753;28;19912;-70
2022/09/28 07:04:14;;;;;;;;;;;15.00;94.40;;;;;;5014458;28;20265;-70
2022/09/28 07:06:44;;;;;;;;;;;15.00;94.60;;;;;;5014347;28;19906;-70
2022/09/28 07:09:10;;;;;;;;;;;15.00;94.70;;;;;;5014947;28;19905;-70
2022/09/28 07:11:38;;;;;;;;;;;15.00;95.00;;;;;;5014378;28;20274;-70
2022/09/28 07:14:04;;;;;;;;;;;15.00;95.10;;;;;;5014082;28;20011;-70
2022/09/28 07:16:29;;;;;;;;;;;15.10;95.30;;;;;;5014397;28;19909;-70
2022/09/28 07:18:55;;;;;;;;;;;15.00;95.60;;;;;;5013036;28;19943;-70
2022/09/28 07:21:20;;;;;;;;;;;15.10;95.60;;;;;;5014330;28;20358;-70
2022/09/28 07:23:47;;;;;;;;;;;15.20;95.60;;;;;;5014193;28;19905;-70
2022/09/28 07:26:13;;;;;;;;;;;15.20;95.50;;;;;;5014167;28;19909;-70
2022/09/28 07:28:40;;;;;;;;;;;15.20;95.50;;;;;;5014303;28;19964;-70
2022/09/28 07:31:06;;;;;;;;;;;15.20;95.40;;;;;;5014355;28;19905;-70
2022/09/28 07:33:32;;;;;;;;;;;15.30;95.50;;;;;;5014310;28;20046;-70
2022/09/28 07:35:59;;;;;;;;;;;15.30;95.30;;;;;;5013865;28;20351;-70
2022/09/28 07:38:25;;;;;;;;;;;15.30;95.40;;;;;;5014163;28;19912;-70
2022/09/28 07:43:34;;;;;;;;;;;15.40;95.30;;;;;;5014287;28;19951;-70
2022/09/28 07:46:00;;;;;;;;;;;15.40;95.20;;;;;;5013499;28;20279;-70
2022/09/28 07:48:25;;;;;;;;;;;15.40;95.40;;;;;;5014026;28;19905;-70
2022/09/28 07:50:52;;;;;;;;;;;15.40;95.40;;;;;;5013573;28;19905;-70
2022/09/28 07:53:21;;;;;;;;;;;15.40;95.50;;;;;;5013905;28;19906;-69
2022/09/28 07:55:50;;;;;;;;;;;15.40;95.40;;;;;;5014434;28;19905;-70
2022/09/28 07:58:16;;;;;;;;;;;15.40;95.40;;;;;;5013671;28;20429;-70
2022/09/28 08:00:43;;;;;;;;;;;15.50;95.30;;;;;;5013420;28;19965;-70
2022/09/28 08:03:09;;;;;;;;;;;15.50;95.40;;;;;;5013979;28;20317;-70
2022/09/28 08:05:34;;;;;;;;;;;15.60;95.30;;;;;;5013521;28;20394;-70
2022/09/28 08:08:01;;;;;;;;;;;15.60;95.30;;;;;;5013687;28;20318;-70
2022/09/28 08:10:26;;;;;;;;;;;15.60;95.10;;;;;;5013908;28;19912;-69
2022/09/28 08:12:55;;;;;;;;;;;15.70;95.00;;;;;;5013748;28;19999;-70
2022/09/28 08:15:21;;;;;;;;;;;15.70;95.00;;;;;;5013582;28;19920;-70
2022/09/28 08:17:46;;;;;;;;;;;15.60;95.10;;;;;;5013635;28;19999;-70
2022/09/28 08:23:01;;;;;;;;;;;15.60;95.20;;;;;;5013787;28;19960;-70
2022/09/28 08:25:27;;;;;;;;;;;15.60;95.30;;;;;;5013557;28;19992;-69
2022/09/28 08:27:54;;;;;;;;;;;15.60;95.20;;;;;;5013534;28;20000;-70
2022/09/28 08:30:22;;;;;;;;;;;15.60;95.20;;;;;;5013385;28;19975;-70
2022/09/28 08:32:48;;;;;;;;;;;15.70;95.20;;;;;;5013446;28;19905;-70
2022/09/28 08:35:14;;;;;;;;;;;15.70;95.30;;;;;;5013163;28;19955;-70
2022/09/28 08:37:39;;;;;;;;;;;15.70;95.20;;;;;;5013510;28;19910;-70
2022/09/28 08:40:05;;;;;;;;;;;15.70;95.30;;;;;;5013202;28;19918;-70
2022/09/28 08:42:33;;;;;;;;;;;15.80;95.20;;;;;;5014515;28;20003;-70
2022/09/28 08:45:04;;;;;;;;;;;15.90;95.00;;;;;;5017509;28;19912;-70
2022/09/28 08:50:23;;;;;;;;;;;15.80;95.00;;;;;;5016995;28;19968;-70
2022/09/28 08:52:52;;;;;;;;;;;15.80;95.10;;;;;;5017148;28;19935;-70
2022/09/28 08:55:21;;;;;;;;;;;15.70;95.20;;;;;;5017039;28;19928;-70
2022/09/28 08:57:49;;;;;;;;;;;15.80;95.20;;;;;;5016944;28;19905;-70
2022/09/28 09:00:20;;;;;;;;;;;15.80;95.30;;;;;;5016629;28;19913;-70
2022/09/28 09:02:46;;;;;;;;;;;15.80;95.30;;;;;;5016861;28;19906;-70
2022/09/28 09:05:13;;;;;;;;;;;15.80;95.40;;;;;;5017011;28;19912;-70
2022/09/28 09:07:38;;;;;;;;;;;15.80;95.20;;;;;;5016819;28;19905;-70
2022/09/28 09:10:25;;;;;;;;;;;15.90;95.10;;;;;;5016808;28;20267;-70
2022/09/28 09:12:50;;;;;;;;;;;15.90;95.10;;;;;;5016587;28;19906;-70
2022/09/28 09:15:16;;;;;;;;;;;15.90;95.00;;;;;;5016733;28;19915;-70
2022/09/28 09:17:55;;;;;;;;;;;15.90;95.20;;;;;;5016317;28;19910;-70
2022/09/28 09:20:26;;;;;;;;;;;15.90;95.20;;;;;;5016597;28;19956;-70
2022/09/28 09:22:59;;;;;;;;;;;15.90;95.20;;;;;;5016357;28;19912;-70
2022/09/28 09:25:27;;;;;;;;;;;15.90;95.30;;;;;;5016536;28;20015;-70
2022/09/28 09:28:02;;;;;;;;;;;16.00;95.30;;;;;;5014882;28;20342;-70
2022/09/28 09:30:36;;;;;;;;;;;15.90;95.30;;;;;;5016398;28;19905;-69
2022/09/28 09:33:03;;;;;;;;;;;16.00;95.40;;;;;;5016028;28;19981;-70
2022/09/28 09:35:58;;;;;;;;;;;16.00;95.40;;;;;;5016495;28;19912;-70
2022/09/28 09:38:31;;;;;;;;;;;16.00;95.40;;;;;;5011401;28;19920;-70
2022/09/28 09:41:15;;;;;;;;;;;16.00;95.30;;;;;;5016032;28;19913;-70
2022/09/28 09:43:41;;;;;;;;;;;16.10;95.10;;;;;;5015992;28;20398;-68
2022/09/28 09:46:10;;;;;;;;;;;16.10;95.20;;;;;;5015487;28;19917;-70
2022/09/28 09:48:39;;;;;;;;;;;16.10;95.20;;;;;;5016119;28;19905;-70
2022/09/28 09:51:24;;;;;;;;;;;16.20;95.20;;;;;;5016071;28;19909;-70
2022/09/28 09:53:59;;;;;;;;;;;16.20;95.20;;;;;;5009699;28;19912;-70
2022/09/28 09:56:31;;;;;;;;;;;16.20;95.20;;;;;;5015994;28;19956;-70
2022/09/28 09:59:00;;;;;;;;;;;16.30;95.10;;;;;;5016127;28;19912;-70
2022/09/28 10:01:33;;;;;;;;;;;16.20;95.00;;;;;;5015667;28;19920;-70
2022/09/28 10:03:59;;;;;;;;;;;16.20;95.00;;;;;;5015584;28;20354;-70
2022/09/28 10:06:28;;;;;;;;;;;16.20;95.00;;;;;;5015739;28;20011;-70
2022/09/28 10:09:00;;;;;;;;;;;16.30;94.60;;;;;;5015857;28;19909;-70
2022/09/28 10:11:27;;;;;;;;;;;16.30;94.70;;;;;;5015775;28;19945;-70
2022/09/28 10:13:53;;;;;;;;;;;16.40;94.60;;;;;;5015547;28;19909;-70
2022/09/28 10:16:19;;;;;;;;;;;16.40;94.30;;;;;;5016626;28;19913;-70
2022/09/28 10:18:44;;;;;;;;;;;16.40;94.30;;;;;;5028483;28;19909;-70
2022/09/28 10:21:12;;;;;;;;;;;16.40;94.70;;;;;;5024479;28;20379;-70
2022/09/28 10:23:38;;;;;;;;;;;16.40;94.80;;;;;;5039771;28;19955;-70
2022/09/28 10:26:14;;;;;;;;;;;16.50;95.10;;;;;;5034047;28;19913;-70
2022/09/28 10:28:39;;;;;;;;;;;16.50;95.00;;;;;;5020893;28;19964;-70
2022/09/28 10:31:24;;;;;;;;;;;16.50;95.10;;;;;;5030971;28;19909;-70
2022/09/28 10:33:52;;;;;;;;;;;16.60;95.20;;;;;;5015994;28;20004;-70
2022/09/28 10:36:17;;;;;;;;;;;16.60;95.10;;;;;;5023931;28;19909;-70
2022/09/28 10:38:46;;;;;;;;;;;16.60;95.00;;;;;;5019784;28;20355;-70
2022/09/28 10:41:12;;;;;;;;;;;16.60;95.00;;;;;;5032184;28;19925;-70
2022/09/28 10:43:44;;;;;;;;;;;16.60;94.70;;;;;;5020769;28;20009;-70
2022/09/28 10:46:14;;;;;;;;;;;16.70;94.90;;;;;;5022008;28;20011;-69
2022/09/28 10:49:05;;;;;;;;;;;16.70;94.90;;;;;;5012711;28;19992;-69
2022/09/28 10:51:40;;;;;;;;;;;16.60;95.00;;;;;;5021730;28;19952;-69
2022/09/28 10:54:12;;;;;;;;;;;16.70;94.60;;;;;;5008398;28;20440;-69
2022/09/28 10:56:38;;;;;;;;;;;16.80;94.30;;;;;;5016217;28;19909;-69
2022/09/28 10:59:22;;;;;;;;;;;16.80;93.70;;;;;;5020171;28;20000;-70
2022/09/28 11:01:51;;;;;;;;;;;16.80;93.40;;;;;;5011821;28;19913;-69
2022/09/28 11:04:19;;;;;;;;;;;16.80;93.40;;;;;;5012031;28;20004;-68
2022/09/28 11:06:45;;;;;;;;;;;16.80;93.50;;;;;;5024519;28;20430;-69
2022/09/28 11:09:28;;;;;;;;;;;16.80;93.60;;;;;;5016472;28;19916;-70
2022/09/28 11:11:54;;;;;;;;;;;16.70;93.60;;;;;;5018409;28;19983;-69
2022/09/28 11:14:24;;;;;;;;;;;16.70;94.50;;;;;;5016195;28;19909;-69
2022/09/28 11:17:10;;;;;;;;;;;16.60;94.80;;;;;;5011113;28;19919;-69
2022/09/28 11:19:35;;;;;;;;;;;16.60;94.50;;;;;;5015066;28;19923;-69
2022/09/28 11:22:01;;;;;;;;;;;16.80;93.90;;;;;;5023286;28;19909;-69
2022/09/28 11:24:27;;;;;;;;;;;16.70;94.30;;;;;;5023226;28;19916;-69
2022/09/28 11:26:55;;;;;;;;;;;16.50;94.60;;;;;;5013787;28;19921;-69
2022/09/28 11:29:29;;;;;;;;;;;16.60;94.90;;;;;;5026004;28;19955;-69
2022/09/28 11:32:04;;;;;;;;;;;16.90;94.30;;;;;;5013967;28;20000;-69
2022/09/28 11:34:41;;;;;;;;;;;16.90;95.50;;;;;;5026912;28;19909;-69
2022/09/28 11:37:13;;;;;;;;;;;17.00;95.30;;;;;;5018909;28;19962;-69
2022/09/28 11:39:44;;;;;;;;;;;16.90;95.10;;;;;;5027667;28;20015;-70
2022/09/28 11:42:28;;;;;;;;;;;16.90;94.90;;;;;;5020540;28;19924;-69
2022/09/28 11:45:01;;;;;;;;;;;16.90;95.00;;;;;;5018635;28;19913;-69
2022/09/28 11:47:26;;;;;;;;;;;17.00;94.70;;;;;;5010789;28;20044;-69
2022/09/28 11:50:04;;;;;;;;;;;17.00;94.70;;;;;;5012384;28;20394;-69
2022/09/28 11:52:35;;;;;;;;;;;17.00;94.20;;;;;;5015828;28;20278;-69
2022/09/28 11:55:19;;;;;;;;;;;17.10;94.30;;;;;;5018286;28;19913;-70
2022/09/28 11:57:47;;;;;;;;;;;17.00;94.50;;;;;;5046318;28;20003;-70
2022/09/28 12:00:14;;;;;;;;;;;17.10;94.30;;;;;;5049285;28;19923;-70
2022/09/28 12:02:48;;;;;;;;;;;17.00;94.50;;;;;;5039195;28;19916;-69
2022/09/28 12:05:13;;;;;;;;;;;17.00;94.80;;;;;;5020945;28;20322;-70
2022/09/28 12:07:42;;;;;;;;;;;17.10;95.40;;;;;;5017693;28;19910;-70
2022/09/28 12:10:08;;;;;;;;;;;17.10;95.40;;;;;;5012251;28;19921;-70
2022/09/28 12:12:37;;;;;;;;;;;17.00;95.40;;;;;;5016663;28;19971;-69
2022/09/28 12:15:17;;;;;;;;;;;16.70;94.70;;;;;;5012689;28;20266;-70
2022/09/28 12:17:47;;;;;;;;;;;16.80;94.20;;;;;;5014866;28;19917;-69
2022/09/28 12:20:27;;;;;;;;;;;16.80;93.80;;;;;;5015127;28;19917;-70
2022/09/28 12:22:59;;;;;;;;;;;16.90;93.50;;;;;;5025239;28;19916;-71
2022/09/28 12:25:26;;;;;;;;;;;17.10;93.50;;;;;;5013262;28;19925;-71
2022/09/28 12:27:52;;;;;;;;;;;17.10;93.10;;;;;;5011991;28;19935;-70
2022/09/28 12:30:19;;;;;;;;;;;17.20;93.40;;;;;;5019114;28;20421;-70
2022/09/28 12:32:47;;;;;;;;;;;17.20;93.20;;;;;;5011760;28;19914;-70
2022/09/28 12:35:31;;;;;;;;;;;17.20;93.00;;;;;;5018770;28;20409;-70
2022/09/28 12:38:15;;;;;;;;;;;17.30;93.10;;;;;;5013329;28;20342;-70
2022/09/28 12:40:57;;;;;;;;;;;17.30;93.20;;;;;;5014002;28;19917;-70
2022/09/28 12:43:27;;;;;;;;;;;17.30;93.10;;;;;;5023380;28;20290;-70
2022/09/28 12:46:01;;;;;;;;;;;17.10;93.60;;;;;;5030044;28;20304;-70
2022/09/28 12:48:29;;;;;;;;;;;17.20;93.20;;;;;;5037974;28;19927;-71
2022/09/28 12:50:57;;;;;;;;;;;17.20;93.10;;;;;;5028804;28;19916;-70
2022/09/28 12:53:34;;;;;;;;;;;17.10;93.30;;;;;;5041673;28;20388;-70
2022/09/28 12:56:02;;;;;;;;;;;17.30;93.30;;;;;;5040388;28;19912;-70
2022/09/28 12:58:38;;;;;;;;;;;17.40;93.30;;;;;;5034573;28;19912;-70
2022/09/28 13:01:14;;;;;;;;;;;17.50;93.10;;;;;;5041376;28;20393;-70
2022/09/28 13:03:55;;;;;;;;;;;17.40;93.20;;;;;;5037466;28;19909;-69
2022/09/28 13:06:24;;;;;;;;;;;17.30;93.10;;;;;;5047572;28;20353;-70
2022/09/28 13:09:13;;;;;;;;;;;17.40;93.50;;;;;;5038969;28;19932;-70
2022/09/28 13:11:58;;;;;;;;;;;17.40;93.70;;;;;;5041860;28;19909;-70
2022/09/28 13:14:52;;;;;;;;;;;17.50;93.80;;;;;;5040528;28;19988;-70
2022/09/28 13:17:27;;;;;;;;;;;17.40;93.90;;;;;;5041085;28;19913;-71
2022/09/28 13:20:12;;;;;;;;;;;17.40;93.80;;;;;;5036510;28;20127;-69
2022/09/28 13:22:44;;;;;;;;;;;17.30;93.60;;;;;;5023684;28;20003;-69
2022/09/28 13:25:13;;;;;;;;;;;17.40;93.40;;;;;;5019986;28;19913;-70
2022/09/28 13:27:41;;;;;;;;;;;17.50;93.40;;;;;;5012591;28;19906;-69
2022/09/28 13:30:07;;;;;;;;;;;17.50;93.10;;;;;;5018928;28;19916;-71
2022/09/28 13:32:34;;;;;;;;;;;17.50;93.60;;;;;;5034559;28;19916;-70
2022/09/28 13:35:04;;;;;;;;;;;17.50;93.80;;;;;;5026930;28;19955;-70
2022/09/28 13:37:29;;;;;;;;;;;17.40;94.20;;;;;;5023376;28;19909;-71
2022/09/28 13:39:57;;;;;;;;;;;17.50;94.70;;;;;;5028210;28;20442;-69
2022/09/28 13:42:31;;;;;;;;;;;17.50;93.80;;;;;;5023920;28;19958;-69
2022/09/28 13:45:16;;;;;;;;;;;17.60;93.30;;;;;;5015386;28;20322;-70
2022/09/28 13:47:50;;;;;;;;;;;17.60;93.60;;;;;;5013588;28;20368;-70
2022/09/28 13:50:25;;;;;;;;;;;17.50;93.20;;;;;;5020572;28;19971;-71
2022/09/28 13:52:56;;;;;;;;;;;17.70;93.30;;;;;;5039620;28;19916;-71
2022/09/28 13:55:38;;;;;;;;;;;17.70;93.30;;;;;;5022986;28;19938;-70
2022/09/28 13:58:13;;;;;;;;;;;17.70;93.60;;;;;;5038702;28;19947;-70
2022/09/28 14:00:44;;;;;;;;;;;17.70;93.50;;;;;;5039676;28;20293;-71
2022/09/28 14:03:10;;;;;;;;;;;17.60;93.20;;;;;;5028577;28;19916;-72
2022/09/28 14:05:51;;;;;;;;;;;17.60;93.50;;;;;;5014885;28;19909;-70
2022/09/28 14:08:35;;;;;;;;;;;17.60;94.00;;;;;;5019005;28;19920;-70
2022/09/28 14:11:23;;;;;;;;;;;17.70;93.90;;;;;;5034380;28;20340;-70
2022/09/28 14:13:59;;;;;;;;;;;17.70;94.30;;;;;;5027741;28;19916;-71
2022/09/28 14:16:26;;;;;;;;;;;17.70;94.00;;;;;;5011146;28;20022;-71
2022/09/28 14:18:58;;;;;;;;;;;17.80;93.90;;;;;;5021462;28;19916;-70
2022/09/28 14:21:32;;;;;;;;;;;17.80;93.60;;;;;;5016095;28;19924;-70
2022/09/28 14:24:06;;;;;;;;;;;17.80;93.40;;;;;;5021403;28;20048;-71
2022/09/28 14:26:41;;;;;;;;;;;17.80;93.80;;;;;;5020168;28;19909;-69
2022/09/28 14:29:28;;;;;;;;;;;17.80;93.60;;;;;;5017717;28;19916;-70
2022/09/28 14:31:57;;;;;;;;;;;17.80;93.70;;;;;;5017684;28;19949;-71
2022/09/28 14:34:23;;;;;;;;;;;17.80;93.30;;;;;;5022712;28;19909;-70
2022/09/28 14:42:19;;;;;;;;;;;17.70;94.20;;;;;;5017718;28;19915;-71
2022/09/28 14:45:00;;;;;;;;;;;17.80;93.70;;;;;;5023379;28;20281;-71
2022/09/28 14:47:34;;;;;;;;;;;17.80;93.60;;;;;;5030278;28;19930;-70